sensor_id;sensor_type;location;lat;lon;timestamp;temperature;humidity
26575;DHT22;67165;50.256;10.978;2023-12-20T00:00:25;4.20;98.00
26575;DHT22;67165;50.256;10.978;2023-12-20T00:02:51;4.30;98.00
26575;DHT22;67165;50.256;10.978;2023-12-20T00:05:16;4.20;98.00
26575;DHT22;67165;50.256;10.978;2023-12-20T00:07:42;4.20;98.00
26575;DHT22;67165;50.256;10.978;2023-12-20T00:10:09;4.30;98.00
26575;DHT22;67165;50.256;10.978;2023-12-20T00:12:35;4.30;98.00
26575;DHT22;67165;50.256;10.978;2023-12-20T00:15:00;4.20;98.00
26575;DHT22;67165;50.256;10.978;2023-12-20T00:17:26;4.30;98.00
26575;DHT22;67165;50.256;10.978;2023-12-20T00:19:51;4.20;98.00
26575;DHT22;67165;50.256;10.978;2023-12-20T00:22:17;4.20;98.00
26575;DHT22;67165;50.256;10.978;2023-12-20T00:24:43;4.30;98.00
26575;DHT22;67165;50.256;10.978;2023-12-20T00:27:08;4.30;98.00
26575;DHT22;67165;50.256;10.978;2023-12-20T00:29:34;4.30;98.00
26575;DHT22;67165;50.256;10.978;2023-12-20T00:31:59;4.30;98.00
26575;DHT22;67165;50.256;10.978;2023-12-20T00:34:25;4.30;98.00
26575;DHT22;67165;50.256;10.978;2023-12-20T00:36:51;4.30;98.00
26575;DHT22;67165;50.256;10.978;2023-12-20T00:39:16;4.30;98.00
26575;DHT22;67165;50.256;10.978;2023-12-20T00:41:42;4.30;98.00
26575;DHT22;67165;50.256;10.978;2023-12-20T00:44:07;4.40;98.00
26575;DHT22;67165;50.256;10.978;2023-12-20T00:46:33;4.30;98.00
26575;DHT22;67165;50.256;10.978;2023-12-20T00:48:59;4.30;98.00
26575;DHT22;67165;50.256;10.978;2023-12-20T00:51:24;4.30;98.00
26575;DHT22;67165;50.256;10.978;2023-12-20T00:53:50;4.30;98.00
26575;DHT22;67165;50.256;10.978;2023-12-20T00:56:20;4.30;98.00
26575;DHT22;67165;50.256;10.978;2023-12-20T00:58:45;4.30;98.00
26575;DHT22;67165;50.256;10.978;2023-12-20T01:01:11;4.30;98.00
26575;DHT22;67165;50.256;10.978;2023-12-20T01:03:37;4.30;98.00
26575;DHT22;67165;50.256;10.978;2023-12-20T01:06:02;4.40;98.00
26575;DHT22;67165;50.256;10.978;2023-12-20T01:08:30;4.30;98.00
26575;DHT22;67165;50.256;10.978;2023-12-20T01:10:55;4.30;98.00
26575;DHT22;67165;50.256;10.978;2023-12-20T01:13:21;4.30;98.00
26575;DHT22;67165;50.256;10.978;2023-12-20T01:15:46;4.30;98.00
26575;DHT22;67165;50.256;10.978;2023-12-20T01:18:14;4.30;98.00
26575;DHT22;67165;50.256;10.978;2023-12-20T01:20:39;4.30;98.00
26575;DHT22;67165;50.256;10.978;2023-12-20T01:23:05;4.30;98.00
26575;DHT22;67165;50.256;10.978;2023-12-20T01:25:31;4.30;98.00
26575;DHT22;67165;50.256;10.978;2023-12-20T01:27:56;4.30;98.00
26575;DHT22;67165;50.256;10.978;2023-12-20T01:30:22;4.40;98.00
26575;DHT22;67165;50.256;10.978;2023-12-20T01:32:47;4.30;98.00
26575;DHT22;67165;50.256;10.978;2023-12-20T01:35:13;4.30;98.00
26575;DHT22;67165;50.256;10.978;2023-12-20T01:37:39;4.40;98.00
26575;DHT22;67165;50.256;10.978;2023-12-20T01:40:05;4.40;98.00
26575;DHT22;67165;50.256;10.978;2023-12-20T01:42:31;4.40;98.00
26575;DHT22;67165;50.256;10.978;2023-12-20T01:44:56;4.30;98.00
26575;DHT22;67165;50.256;10.978;2023-12-20T01:47:22;4.30;98.00
26575;DHT22;67165;50.256;10.978;2023-12-20T01:49:49;4.30;98.00
26575;DHT22;67165;50.256;10.978;2023-12-20T01:52:14;4.30;98.00
26575;DHT22;67165;50.256;10.978;2023-12-20T01:54:41;4.40;98.00
26575;DHT22;67165;50.256;10.978;2023-12-20T01:57:08;4.40;98.00
26575;DHT22;67165;50.256;10.978;2023-12-20T01:59:34;4.30;98.00
26575;DHT22;67165;50.256;10.978;2023-12-20T02:02:00;4.40;98.00
26575;DHT22;67165;50.256;10.978;2023-12-20T02:04:26;4.30;98.00
26575;DHT22;67165;50.256;10.978;2023-12-20T02:06:53;4.30;98.00
26575;DHT22;67165;50.256;10.978;2023-12-20T02:09:18;4.40;98.00
26575;DHT22;67165;50.256;10.978;2023-12-20T02:11:44;4.30;98.00
26575;DHT22;67165;50.256;10.978;2023-12-20T02:14:10;4.40;98.00
26575;DHT22;67165;50.256;10.978;2023-12-20T02:16:36;4.40;98.00
26575;DHT22;67165;50.256;10.978;2023-12-20T02:19:04;4.40;98.00
26575;DHT22;67165;50.256;10.978;2023-12-20T02:21:32;4.40;98.00
26575;DHT22;67165;50.256;10.978;2023-12-20T02:23:59;4.40;98.00
26575;DHT22;67165;50.256;10.978;2023-12-20T02:26:24;4.30;98.00
26575;DHT22;67165;50.256;10.978;2023-12-20T02:28:50;4.40;98.00
26575;DHT22;67165;50.256;10.978;2023-12-20T02:31:16;4.30;98.00
26575;DHT22;67165;50.256;10.978;2023-12-20T02:33:41;4.30;98.00
26575;DHT22;67165;50.256;10.978;2023-12-20T02:36:07;4.30;98.00
26575;DHT22;67165;50.256;10.978;2023-12-20T02:38:33;4.30;98.00
26575;DHT22;67165;50.256;10.978;2023-12-20T02:40:59;4.30;98.00
26575;DHT22;67165;50.256;10.978;2023-12-20T02:43:25;4.30;98.00
26575;DHT22;67165;50.256;10.978;2023-12-20T02:45:50;4.20;98.00
26575;DHT22;67165;50.256;10.978;2023-12-20T02:48:16;4.30;98.00
26575;DHT22;67165;50.256;10.978;2023-12-20T02:50:42;4.30;98.00
26575;DHT22;67165;50.256;10.978;2023-12-20T02:53:07;4.20;98.00
26575;DHT22;67165;50.256;10.978;2023-12-20T02:55:33;4.20;98.00
26575;DHT22;67165;50.256;10.978;2023-12-20T02:57:58;4.20;98.00
26575;DHT22;67165;50.256;10.978;2023-12-20T03:00:24;4.30;98.00
26575;DHT22;67165;50.256;10.978;2023-12-20T03:02:50;4.30;98.00
26575;DHT22;67165;50.256;10.978;2023-12-20T03:05:15;4.20;98.00
26575;DHT22;67165;50.256;10.978;2023-12-20T03:07:41;4.20;98.00
26575;DHT22;67165;50.256;10.978;2023-12-20T03:10:07;4.30;98.00
26575;DHT22;67165;50.256;10.978;2023-12-20T03:12:33;4.30;98.00
26575;DHT22;67165;50.256;10.978;2023-12-20T03:14:59;4.30;98.00
26575;DHT22;67165;50.256;10.978;2023-12-20T03:17:24;4.20;98.00
26575;DHT22;67165;50.256;10.978;2023-12-20T03:19:50;4.20;98.00
26575;DHT22;67165;50.256;10.978;2023-12-20T03:22:16;4.20;98.00
26575;DHT22;67165;50.256;10.978;2023-12-20T03:24:41;4.20;98.00
26575;DHT22;67165;50.256;10.978;2023-12-20T03:27:07;4.20;98.00
26575;DHT22;67165;50.256;10.978;2023-12-20T03:29:32;4.20;98.00
26575;DHT22;67165;50.256;10.978;2023-12-20T03:31:58;4.30;98.00
26575;DHT22;67165;50.256;10.978;2023-12-20T03:34:24;4.20;98.00
26575;DHT22;67165;50.256;10.978;2023-12-20T03:36:49;4.20;98.00
26575;DHT22;67165;50.256;10.978;2023-12-20T03:39:15;4.20;98.00
26575;DHT22;67165;50.256;10.978;2023-12-20T03:41:40;4.20;98.00
26575;DHT22;67165;50.256;10.978;2023-12-20T03:44:06;4.20;98.00
26575;DHT22;67165;50.256;10.978;2023-12-20T03:46:32;4.20;98.00
26575;DHT22;67165;50.256;10.978;2023-12-20T03:48:57;4.20;98.00
26575;DHT22;67165;50.256;10.978;2023-12-20T03:51:23;4.20;98.00
26575;DHT22;67165;50.256;10.978;2023-12-20T03:53:48;4.20;98.00
26575;DHT22;67165;50.256;10.978;2023-12-20T03:56:14;4.20;98.00
26575;DHT22;67165;50.256;10.978;2023-12-20T03:58:39;4.20;98.00
26575;DHT22;67165;50.256;10.978;2023-12-20T04:01:09;4.20;98.00
26575;DHT22;67165;50.256;10.978;2023-12-20T04:03:38;4.30;98.00
26575;DHT22;67165;50.256;10.978;2023-12-20T04:06:03;4.20;98.00
26575;DHT22;67165;50.256;10.978;2023-12-20T04:08:29;4.30;98.00
26575;DHT22;67165;50.256;10.978;2023-12-20T04:10:55;4.20;98.00
26575;DHT22;67165;50.256;10.978;2023-12-20T04:13:20;4.20;98.00
26575;DHT22;67165;50.256;10.978;2023-12-20T04:15:46;4.20;98.00
26575;DHT22;67165;50.256;10.978;2023-12-20T04:18:12;4.10;98.00
26575;DHT22;67165;50.256;10.978;2023-12-20T04:20:37;4.20;98.00
26575;DHT22;67165;50.256;10.978;2023-12-20T04:23:03;4.20;98.00
26575;DHT22;67165;50.256;10.978;2023-12-20T04:25:29;4.10;98.00
26575;DHT22;67165;50.256;10.978;2023-12-20T04:27:54;4.10;98.00
26575;DHT22;67165;50.256;10.978;2023-12-20T04:30:20;4.10;98.00
26575;DHT22;67165;50.256;10.978;2023-12-20T04:32:45;4.10;98.00
26575;DHT22;67165;50.256;10.978;2023-12-20T04:35:11;4.10;98.00
26575;DHT22;67165;50.256;10.978;2023-12-20T04:37:36;4.20;98.00
26575;DHT22;67165;50.256;10.978;2023-12-20T04:40:02;4.20;98.00
26575;DHT22;67165;50.256;10.978;2023-12-20T04:42:28;4.10;98.00
26575;DHT22;67165;50.256;10.978;2023-12-20T04:44:54;4.20;98.00
26575;DHT22;67165;50.256;10.978;2023-12-20T04:47:19;4.20;98.00
26575;DHT22;67165;50.256;10.978;2023-12-20T04:49:48;4.20;98.00
26575;DHT22;67165;50.256;10.978;2023-12-20T04:52:14;4.20;98.00
26575;DHT22;67165;50.256;10.978;2023-12-20T04:54:40;4.20;98.00
26575;DHT22;67165;50.256;10.978;2023-12-20T04:57:05;4.20;98.00
26575;DHT22;67165;50.256;10.978;2023-12-20T04:59:31;4.20;98.00
26575;DHT22;67165;50.256;10.978;2023-12-20T05:01:57;4.20;98.00
26575;DHT22;67165;50.256;10.978;2023-12-20T05:04:23;4.20;98.00
26575;DHT22;67165;50.256;10.978;2023-12-20T05:06:48;4.20;98.00
26575;DHT22;67165;50.256;10.978;2023-12-20T05:09:15;4.20;98.00
26575;DHT22;67165;50.256;10.978;2023-12-20T05:11:41;4.20;98.00
26575;DHT22;67165;50.256;10.978;2023-12-20T05:14:06;4.20;98.00
26575;DHT22;67165;50.256;10.978;2023-12-20T05:16:32;4.30;98.00
26575;DHT22;67165;50.256;10.978;2023-12-20T05:18:58;4.30;98.00
26575;DHT22;67165;50.256;10.978;2023-12-20T05:21:26;4.30;98.00
26575;DHT22;67165;50.256;10.978;2023-12-20T05:23:51;4.30;98.00
26575;DHT22;67165;50.256;10.978;2023-12-20T05:26:17;4.40;98.00
26575;DHT22;67165;50.256;10.978;2023-12-20T05:28:43;4.30;98.00
26575;DHT22;67165;50.256;10.978;2023-12-20T05:31:09;4.30;98.00
26575;DHT22;67165;50.256;10.978;2023-12-20T05:33:34;4.30;98.00
26575;DHT22;67165;50.256;10.978;2023-12-20T05:36:00;4.30;98.00
26575;DHT22;67165;50.256;10.978;2023-12-20T05:38:26;4.30;98.00
26575;DHT22;67165;50.256;10.978;2023-12-20T05:40:51;4.30;98.00
26575;DHT22;67165;50.256;10.978;2023-12-20T05:43:17;4.30;98.00
26575;DHT22;67165;50.256;10.978;2023-12-20T05:45:44;4.40;98.00
26575;DHT22;67165;50.256;10.978;2023-12-20T05:48:10;4.40;98.00
26575;DHT22;67165;50.256;10.978;2023-12-20T05:50:35;4.40;98.00
26575;DHT22;67165;50.256;10.978;2023-12-20T05:53:02;4.50;98.00
26575;DHT22;67165;50.256;10.978;2023-12-20T05:55:27;4.40;98.00
26575;DHT22;67165;50.256;10.978;2023-12-20T05:57:53;4.40;98.00
26575;DHT22;67165;50.256;10.978;2023-12-20T06:00:19;4.40;98.00
26575;DHT22;67165;50.256;10.978;2023-12-20T06:02:44;4.50;98.00
26575;DHT22;67165;50.256;10.978;2023-12-20T06:05:10;4.50;98.00
26575;DHT22;67165;50.256;10.978;2023-12-20T06:07:36;4.40;98.00
26575;DHT22;67165;50.256;10.978;2023-12-20T06:10:01;4.50;98.00
26575;DHT22;67165;50.256;10.978;2023-12-20T06:12:27;4.50;98.00
26575;DHT22;67165;50.256;10.978;2023-12-20T06:14:54;4.50;98.00
26575;DHT22;67165;50.256;10.978;2023-12-20T06:17:20;4.50;98.00
26575;DHT22;67165;50.256;10.978;2023-12-20T06:19:45;4.50;98.00
26575;DHT22;67165;50.256;10.978;2023-12-20T06:22:14;4.50;98.00
26575;DHT22;67165;50.256;10.978;2023-12-20T06:24:39;4.50;98.00
26575;DHT22;67165;50.256;10.978;2023-12-20T06:27:05;4.50;98.00
26575;DHT22;67165;50.256;10.978;2023-12-20T06:29:30;4.50;98.00
26575;DHT22;67165;50.256;10.978;2023-12-20T06:31:56;4.50;98.00
26575;DHT22;67165;50.256;10.978;2023-12-20T06:34:22;4.50;98.00
26575;DHT22;67165;50.256;10.978;2023-12-20T06:36:47;4.50;98.00
26575;DHT22;67165;50.256;10.978;2023-12-20T06:39:13;4.50;98.00
26575;DHT22;67165;50.256;10.978;2023-12-20T06:41:39;4.40;98.00
26575;DHT22;67165;50.256;10.978;2023-12-20T06:44:05;4.50;98.00
26575;DHT22;67165;50.256;10.978;2023-12-20T06:46:32;4.50;98.00
26575;DHT22;67165;50.256;10.978;2023-12-20T06:48:57;4.50;98.00
26575;DHT22;67165;50.256;10.978;2023-12-20T06:51:23;4.50;98.00
26575;DHT22;67165;50.256;10.978;2023-12-20T06:53:51;4.50;98.00
26575;DHT22;67165;50.256;10.978;2023-12-20T06:56:17;4.50;98.00
26575;DHT22;67165;50.256;10.978;2023-12-20T06:58:43;4.50;98.00
26575;DHT22;67165;50.256;10.978;2023-12-20T07:01:12;4.40;98.00
26575;DHT22;67165;50.256;10.978;2023-12-20T07:03:38;4.40;98.00
26575;DHT22;67165;50.256;10.978;2023-12-20T07:06:05;4.40;98.00
26575;DHT22;67165;50.256;10.978;2023-12-20T07:08:30;4.30;98.00
26575;DHT22;67165;50.256;10.978;2023-12-20T07:10:56;4.20;98.00
26575;DHT22;67165;50.256;10.978;2023-12-20T07:13:21;4.10;98.00
26575;DHT22;67165;50.256;10.978;2023-12-20T07:15:48;4.20;98.00
26575;DHT22;67165;50.256;10.978;2023-12-20T07:18:13;4.10;98.00
26575;DHT22;67165;50.256;10.978;2023-12-20T07:20:39;4.10;98.00
26575;DHT22;67165;50.256;10.978;2023-12-20T07:23:05;4.10;98.00
26575;DHT22;67165;50.256;10.978;2023-12-20T07:25:30;4.10;98.00
26575;DHT22;67165;50.256;10.978;2023-12-20T07:27:58;4.10;98.00
26575;DHT22;67165;50.256;10.978;2023-12-20T07:30:24;4.10;98.00
26575;DHT22;67165;50.256;10.978;2023-12-20T07:32:49;4.10;98.00
26575;DHT22;67165;50.256;10.978;2023-12-20T07:35:16;4.10;98.00
26575;DHT22;67165;50.256;10.978;2023-12-20T07:37:41;4.10;98.00
26575;DHT22;67165;50.256;10.978;2023-12-20T07:40:08;4.10;98.00
26575;DHT22;67165;50.256;10.978;2023-12-20T07:42:33;4.20;98.00
26575;DHT22;67165;50.256;10.978;2023-12-20T07:44:59;4.20;98.00
26575;DHT22;67165;50.256;10.978;2023-12-20T07:47:25;4.10;98.00
26575;DHT22;67165;50.256;10.978;2023-12-20T07:49:51;4.10;98.00
26575;DHT22;67165;50.256;10.978;2023-12-20T07:52:18;4.00;98.00
26575;DHT22;67165;50.256;10.978;2023-12-20T07:54:44;3.90;98.00
26575;DHT22;67165;50.256;10.978;2023-12-20T07:57:10;3.90;98.00
26575;DHT22;67165;50.256;10.978;2023-12-20T07:59:36;3.80;98.00
26575;DHT22;67165;50.256;10.978;2023-12-20T08:02:01;3.70;98.00
26575;DHT22;67165;50.256;10.978;2023-12-20T08:04:27;3.70;98.00
26575;DHT22;67165;50.256;10.978;2023-12-20T08:06:53;3.60;98.00
26575;DHT22;67165;50.256;10.978;2023-12-20T08:09:18;3.60;98.00
26575;DHT22;67165;50.256;10.978;2023-12-20T08:11:48;3.60;98.00
26575;DHT22;67165;50.256;10.978;2023-12-20T08:14:15;3.60;98.00
26575;DHT22;67165;50.256;10.978;2023-12-20T08:16:40;3.50;98.00
26575;DHT22;67165;50.256;10.978;2023-12-20T08:19:06;3.50;98.00
26575;DHT22;67165;50.256;10.978;2023-12-20T08:21:31;3.60;98.00
26575;DHT22;67165;50.256;10.978;2023-12-20T08:23:57;3.60;98.00
26575;DHT22;67165;50.256;10.978;2023-12-20T08:26:23;3.60;98.00
26575;DHT22;67165;50.256;10.978;2023-12-20T08:28:50;3.60;98.00
26575;DHT22;67165;50.256;10.978;2023-12-20T08:31:16;3.70;98.00
26575;DHT22;67165;50.256;10.978;2023-12-20T08:33:44;3.70;98.00
26575;DHT22;67165;50.256;10.978;2023-12-20T08:36:10;3.80;98.00
26575;DHT22;67165;50.256;10.978;2023-12-20T08:38:35;3.90;98.00
26575;DHT22;67165;50.256;10.978;2023-12-20T08:41:02;4.00;98.00
26575;DHT22;67165;50.256;10.978;2023-12-20T08:43:28;4.00;98.00
26575;DHT22;67165;50.256;10.978;2023-12-20T08:45:54;4.10;98.00
26575;DHT22;67165;50.256;10.978;2023-12-20T08:48:20;4.20;98.00
26575;DHT22;67165;50.256;10.978;2023-12-20T08:50:45;4.20;98.00
26575;DHT22;67165;50.256;10.978;2023-12-20T08:53:12;4.30;98.00
26575;DHT22;67165;50.256;10.978;2023-12-20T08:55:38;4.40;98.00
26575;DHT22;67165;50.256;10.978;2023-12-20T08:58:03;4.40;98.00
26575;DHT22;67165;50.256;10.978;2023-12-20T09:00:32;4.40;98.00
26575;DHT22;67165;50.256;10.978;2023-12-20T09:02:57;4.50;98.00
26575;DHT22;67165;50.256;10.978;2023-12-20T09:05:23;4.50;98.00
26575;DHT22;67165;50.256;10.978;2023-12-20T09:07:48;4.50;98.00
26575;DHT22;67165;50.256;10.978;2023-12-20T09:10:14;4.50;98.00
26575;DHT22;67165;50.256;10.978;2023-12-20T09:12:40;4.60;98.00
26575;DHT22;67165;50.256;10.978;2023-12-20T09:15:06;4.60;98.00
26575;DHT22;67165;50.256;10.978;2023-12-20T09:17:32;4.60;98.00
26575;DHT22;67165;50.256;10.978;2023-12-20T09:19:57;4.70;98.00
26575;DHT22;67165;50.256;10.978;2023-12-20T09:22:25;4.70;98.00
26575;DHT22;67165;50.256;10.978;2023-12-20T09:24:51;4.70;98.00
26575;DHT22;67165;50.256;10.978;2023-12-20T09:27:16;4.70;98.00
26575;DHT22;67165;50.256;10.978;2023-12-20T09:29:42;4.80;98.00
26575;DHT22;67165;50.256;10.978;2023-12-20T09:32:08;4.80;98.00
26575;DHT22;67165;50.256;10.978;2023-12-20T09:34:34;4.80;98.00
26575;DHT22;67165;50.256;10.978;2023-12-20T09:36:59;4.90;98.00
26575;DHT22;67165;50.256;10.978;2023-12-20T09:39:25;4.90;98.00
26575;DHT22;67165;50.256;10.978;2023-12-20T09:42:04;4.80;98.00
26575;DHT22;67165;50.256;10.978;2023-12-20T09:44:31;4.90;98.00
26575;DHT22;67165;50.256;10.978;2023-12-20T09:46:57;4.90;98.00
26575;DHT22;67165;50.256;10.978;2023-12-20T09:49:23;4.90;98.00
26575;DHT22;67165;50.256;10.978;2023-12-20T09:51:51;4.90;98.00
26575;DHT22;67165;50.256;10.978;2023-12-20T09:54:17;4.90;98.00
26575;DHT22;67165;50.256;10.978;2023-12-20T09:56:44;4.90;98.00
26575;DHT22;67165;50.256;10.978;2023-12-20T09:59:10;5.00;98.00
26575;DHT22;67165;50.256;10.978;2023-12-20T10:01:36;5.10;98.00
26575;DHT22;67165;50.256;10.978;2023-12-20T10:04:09;5.00;98.00
26575;DHT22;67165;50.256;10.978;2023-12-20T10:06:44;5.00;98.00
26575;DHT22;67165;50.256;10.978;2023-12-20T10:09:10;5.00;98.00
26575;DHT22;67165;50.256;10.978;2023-12-20T10:11:37;5.00;98.00
26575;DHT22;67165;50.256;10.978;2023-12-20T10:14:04;4.90;98.00
26575;DHT22;67165;50.256;10.978;2023-12-20T10:16:30;4.80;98.00
26575;DHT22;67165;50.256;10.978;2023-12-20T10:18:56;4.80;98.00
26575;DHT22;67165;50.256;10.978;2023-12-20T10:21:22;4.90;98.00
26575;DHT22;67165;50.256;10.978;2023-12-20T10:23:49;5.00;98.00
26575;DHT22;67165;50.256;10.978;2023-12-20T10:26:22;5.00;98.00
26575;DHT22;67165;50.256;10.978;2023-12-20T10:28:55;4.90;98.00
26575;DHT22;67165;50.256;10.978;2023-12-20T10:31:31;5.00;98.00
26575;DHT22;67165;50.256;10.978;2023-12-20T10:33:58;5.10;98.00
26575;DHT22;67165;50.256;10.978;2023-12-20T10:36:29;5.10;98.00
26575;DHT22;67165;50.256;10.978;2023-12-20T10:38:56;5.10;98.00
26575;DHT22;67165;50.256;10.978;2023-12-20T10:41:31;5.20;98.00
26575;DHT22;67165;50.256;10.978;2023-12-20T10:44:01;5.20;98.00
26575;DHT22;67165;50.256;10.978;2023-12-20T10:46:27;5.20;98.00
26575;DHT22;67165;50.256;10.978;2023-12-20T10:48:57;5.20;98.00
26575;DHT22;67165;50.256;10.978;2023-12-20T10:51:24;5.30;98.00
26575;DHT22;67165;50.256;10.978;2023-12-20T10:53:52;5.40;98.00
26575;DHT22;67165;50.256;10.978;2023-12-20T10:56:19;5.40;98.00
26575;DHT22;67165;50.256;10.978;2023-12-20T10:58:48;5.40;98.00
26575;DHT22;67165;50.256;10.978;2023-12-20T11:01:15;5.40;98.00
26575;DHT22;67165;50.256;10.978;2023-12-20T11:03:52;5.40;98.00
26575;DHT22;67165;50.256;10.978;2023-12-20T11:06:56;5.40;98.00
26575;DHT22;67165;50.256;10.978;2023-12-20T11:14:34;5.30;98.00
26575;DHT22;67165;50.256;10.978;2023-12-20T11:17:09;5.30;98.00
26575;DHT22;67165;50.256;10.978;2023-12-20T11:20:03;5.30;98.00
26575;DHT22;67165;50.256;10.978;2023-12-20T11:22:33;5.40;98.00
26575;DHT22;67165;50.256;10.978;2023-12-20T11:25:08;5.40;98.00
26575;DHT22;67165;50.256;10.978;2023-12-20T11:27:34;5.40;98.00
26575;DHT22;67165;50.256;10.978;2023-12-20T11:30:03;5.30;98.00
26575;DHT22;67165;50.256;10.978;2023-12-20T11:32:34;5.40;98.00
26575;DHT22;67165;50.256;10.978;2023-12-20T11:37:31;5.50;98.00
26575;DHT22;67165;50.256;10.978;2023-12-20T11:40:16;5.50;98.00
26575;DHT22;67165;50.256;10.978;2023-12-20T11:42:50;5.40;98.00
26575;DHT22;67165;50.256;10.978;2023-12-20T11:45:18;5.50;98.00
26575;DHT22;67165;50.256;10.978;2023-12-20T11:47:49;5.40;98.00
26575;DHT22;67165;50.256;10.978;2023-12-20T11:50:16;5.40;98.00
26575;DHT22;67165;50.256;10.978;2023-12-20T11:52:41;5.40;98.00
26575;DHT22;67165;50.256;10.978;2023-12-20T11:55:07;5.50;98.00
26575;DHT22;67165;50.256;10.978;2023-12-20T11:57:33;5.50;98.00
26575;DHT22;67165;50.256;10.978;2023-12-20T11:59:59;5.60;98.00
26575;DHT22;67165;50.256;10.978;2023-12-20T12:02:25;5.60;98.00
26575;DHT22;67165;50.256;10.978;2023-12-20T12:04:51;5.70;98.00
26575;DHT22;67165;50.256;10.978;2023-12-20T12:07:17;5.70;98.00
26575;DHT22;67165;50.256;10.978;2023-12-20T12:09:43;5.70;98.00
26575;DHT22;67165;50.256;10.978;2023-12-20T12:12:08;5.60;98.00
26575;DHT22;67165;50.256;10.978;2023-12-20T12:14:34;5.60;98.00
26575;DHT22;67165;50.256;10.978;2023-12-20T12:17:02;5.60;98.00
26575;DHT22;67165;50.256;10.978;2023-12-20T12:19:29;5.50;98.00
26575;DHT22;67165;50.256;10.978;2023-12-20T12:22:11;5.50;98.00
26575;DHT22;67165;50.256;10.978;2023-12-20T12:24:46;5.40;98.00
26575;DHT22;67165;50.256;10.978;2023-12-20T12:27:13;5.60;98.00
26575;DHT22;67165;50.256;10.978;2023-12-20T12:29:39;5.60;98.00
26575;DHT22;67165;50.256;10.978;2023-12-20T12:32:06;5.70;98.00
26575;DHT22;67165;50.256;10.978;2023-12-20T12:34:35;5.70;98.00
26575;DHT22;67165;50.256;10.978;2023-12-20T12:37:03;5.80;98.00
26575;DHT22;67165;50.256;10.978;2023-12-20T12:39:29;5.80;98.00
26575;DHT22;67165;50.256;10.978;2023-12-20T12:41:56;5.80;98.00
26575;DHT22;67165;50.256;10.978;2023-12-20T12:44:22;5.80;98.00
26575;DHT22;67165;50.256;10.978;2023-12-20T12:46:50;5.80;98.00
26575;DHT22;67165;50.256;10.978;2023-12-20T12:49:17;5.80;98.00
26575;DHT22;67165;50.256;10.978;2023-12-20T12:51:43;5.80;98.00
26575;DHT22;67165;50.256;10.978;2023-12-20T12:54:09;5.70;98.00
26575;DHT22;67165;50.256;10.978;2023-12-20T12:56:36;5.70;98.00
26575;DHT22;67165;50.256;10.978;2023-12-20T12:59:02;5.60;98.00
26575;DHT22;67165;50.256;10.978;2023-12-20T13:01:28;5.60;98.00
26575;DHT22;67165;50.256;10.978;2023-12-20T13:03:53;5.50;98.00
26575;DHT22;67165;50.256;10.978;2023-12-20T13:06:19;5.50;98.00
26575;DHT22;67165;50.256;10.978;2023-12-20T13:08:45;5.40;98.00
26575;DHT22;67165;50.256;10.978;2023-12-20T13:11:11;5.40;98.00
26575;DHT22;67165;50.256;10.978;2023-12-20T13:13:36;5.40;98.00
26575;DHT22;67165;50.256;10.978;2023-12-20T13:16:02;5.50;98.00
26575;DHT22;67165;50.256;10.978;2023-12-20T13:18:28;5.40;98.00
26575;DHT22;67165;50.256;10.978;2023-12-20T13:20:54;5.40;98.00
26575;DHT22;67165;50.256;10.978;2023-12-20T13:23:19;5.50;98.00
26575;DHT22;67165;50.256;10.978;2023-12-20T13:25:45;5.40;98.00
26575;DHT22;67165;50.256;10.978;2023-12-20T13:28:13;5.40;98.00
26575;DHT22;67165;50.256;10.978;2023-12-20T13:30:39;5.40;98.00
26575;DHT22;67165;50.256;10.978;2023-12-20T13:33:06;5.30;98.00
26575;DHT22;67165;50.256;10.978;2023-12-20T13:35:32;5.40;98.00
26575;DHT22;67165;50.256;10.978;2023-12-20T13:37:58;5.40;98.00
26575;DHT22;67165;50.256;10.978;2023-12-20T13:40:24;5.40;98.00
26575;DHT22;67165;50.256;10.978;2023-12-20T13:42:50;5.40;98.00
26575;DHT22;67165;50.256;10.978;2023-12-20T13:45:16;5.50;98.00
26575;DHT22;67165;50.256;10.978;2023-12-20T13:47:41;5.60;98.00
26575;DHT22;67165;50.256;10.978;2023-12-20T13:50:07;5.50;98.00
26575;DHT22;67165;50.256;10.978;2023-12-20T13:52:33;5.40;98.00
26575;DHT22;67165;50.256;10.978;2023-12-20T13:54:59;5.40;98.00
26575;DHT22;67165;50.256;10.978;2023-12-20T13:57:24;5.40;98.00
26575;DHT22;67165;50.256;10.978;2023-12-20T13:59:50;5.40;98.00
26575;DHT22;67165;50.256;10.978;2023-12-20T14:02:15;5.40;98.00
26575;DHT22;67165;50.256;10.978;2023-12-20T14:04:44;5.30;98.00
26575;DHT22;67165;50.256;10.978;2023-12-20T14:07:10;5.20;98.00
26575;DHT22;67165;50.256;10.978;2023-12-20T14:09:36;5.20;98.00
26575;DHT22;67165;50.256;10.978;2023-12-20T14:12:01;5.10;98.00
26575;DHT22;67165;50.256;10.978;2023-12-20T14:14:27;5.20;98.00
26575;DHT22;67165;50.256;10.978;2023-12-20T14:16:52;5.10;98.00
26575;DHT22;67165;50.256;10.978;2023-12-20T14:19:18;5.10;98.00
26575;DHT22;67165;50.256;10.978;2023-12-20T14:21:44;5.10;98.00
26575;DHT22;67165;50.256;10.978;2023-12-20T14:24:15;5.10;98.00
26575;DHT22;67165;50.256;10.978;2023-12-20T14:26:41;5.10;98.00
26575;DHT22;67165;50.256;10.978;2023-12-20T14:29:07;5.10;98.00
26575;DHT22;67165;50.256;10.978;2023-12-20T14:31:33;5.20;98.00
26575;DHT22;67165;50.256;10.978;2023-12-20T14:33:59;5.20;98.00
26575;DHT22;67165;50.256;10.978;2023-12-20T14:36:26;5.20;98.00
26575;DHT22;67165;50.256;10.978;2023-12-20T14:38:52;5.10;98.00
26575;DHT22;67165;50.256;10.978;2023-12-20T14:41:18;5.10;98.00
26575;DHT22;67165;50.256;10.978;2023-12-20T14:43:44;5.20;98.00
26575;DHT22;67165;50.256;10.978;2023-12-20T14:46:10;5.20;98.00
26575;DHT22;67165;50.256;10.978;2023-12-20T14:48:35;5.10;98.00
26575;DHT22;67165;50.256;10.978;2023-12-20T14:51:01;5.10;98.00
26575;DHT22;67165;50.256;10.978;2023-12-20T14:53:26;5.10;98.00
26575;DHT22;67165;50.256;10.978;2023-12-20T14:55:52;5.10;98.00
26575;DHT22;67165;50.256;10.978;2023-12-20T14:58:18;5.10;98.00
26575;DHT22;67165;50.256;10.978;2023-12-20T15:00:43;5.10;98.00
26575;DHT22;67165;50.256;10.978;2023-12-20T15:03:10;5.10;98.00
26575;DHT22;67165;50.256;10.978;2023-12-20T15:05:36;5.00;98.00
26575;DHT22;67165;50.256;10.978;2023-12-20T15:08:02;5.00;98.00
26575;DHT22;67165;50.256;10.978;2023-12-20T15:10:27;5.00;98.00
26575;DHT22;67165;50.256;10.978;2023-12-20T15:12:53;5.00;98.00
26575;DHT22;67165;50.256;10.978;2023-12-20T15:15:20;4.90;98.00
26575;DHT22;67165;50.256;10.978;2023-12-20T15:17:46;4.90;98.00
26575;DHT22;67165;50.256;10.978;2023-12-20T15:20:12;4.90;98.00
26575;DHT22;67165;50.256;10.978;2023-12-20T15:22:38;4.90;98.00
26575;DHT22;67165;50.256;10.978;2023-12-20T15:25:06;4.90;98.00
26575;DHT22;67165;50.256;10.978;2023-12-20T15:27:34;4.90;98.00
26575;DHT22;67165;50.256;10.978;2023-12-20T15:30:03;4.90;98.00
26575;DHT22;67165;50.256;10.978;2023-12-20T15:32:28;4.90;98.00